Time;durP1;ratioP1;P1;durP2;ratioP2;P2;SDS_P1;SDS_P2;PMS_P1;PMS_P2;Temp;Humidity;BMP_temperature;BMP_pressure;BME280_temperature;BME280_humidity;BME280_pressure;Samples;Min_cycle;Max_cycle;Signal;HPM_P1;HPM_P2
2021/03/30 00:00:45;;;;;;;6.80;3.03;;;13.50;99.90;;;;;;5011918;28;20206;-80
2021/03/30 00:03:12;;;;;;;4.50;3.00;;;13.50;99.90;;;;;;5011937;28;20212;-81
2021/03/30 00:05:39;;;;;;;3.47;3.10;;;13.50;99.90;;;;;;5012775;28;20236;-79
2021/03/30 00:08:06;;;;;;;3.70;2.90;;;13.50;99.90;;;;;;5011497;28;20271;-79
2021/03/30 00:10:37;;;;;;;4.57;3.10;;;13.50;99.90;;;;;;5011585;28;20681;-80
2021/03/30 00:13:03;;;;;;;4.90;2.70;;;13.40;99.90;;;;;;5011564;28;20201;-80
2021/03/30 00:15:29;;;;;;;4.03;2.80;;;13.40;99.90;;;;;;5011539;28;20209;-80
2021/03/30 00:17:55;;;;;;;5.27;3.10;;;13.40;99.90;;;;;;5011576;28;20314;-84
2021/03/30 00:20:22;;;;;;;4.63;3.00;;;13.40;99.90;;;;;;5011161;28;20233;-80
2021/03/30 00:22:48;;;;;;;4.10;3.30;;;13.40;99.90;;;;;;5011412;28;20254;-80
2021/03/30 00:25:15;;;;;;;3.47;3.00;;;13.40;99.90;;;;;;5010786;28;20243;-80
2021/03/30 00:27:41;;;;;;;6.13;2.83;;;13.40;99.90;;;;;;5011151;28;20213;-79
2021/03/30 00:30:11;;;;;;;6.33;3.10;;;13.40;99.90;;;;;;5011197;28;20209;-79
2021/03/30 00:32:37;;;;;;;4.57;3.10;;;13.30;99.90;;;;;;5011218;28;20233;-80
2021/03/30 00:35:05;;;;;;;4.53;3.40;;;13.30;99.90;;;;;;5010960;28;20201;-80
2021/03/30 00:37:32;;;;;;;7.20;3.50;;;13.30;99.90;;;;;;5011201;28;20272;-80
2021/03/30 00:39:58;;;;;;;5.30;3.20;;;13.30;99.90;;;;;;5011038;28;20680;-80
2021/03/30 00:42:24;;;;;;;7.13;3.37;;;13.30;99.90;;;;;;5012639;28;20237;-88
2021/03/30 00:44:51;;;;;;;4.77;3.00;;;13.30;99.90;;;;;;5013699;28;20300;-87
2021/03/30 00:47:20;;;;;;;3.63;2.70;;;13.30;99.90;;;;;;5013098;28;20225;-87
2021/03/30 00:49:48;;;;;;;3.33;2.90;;;13.20;99.90;;;;;;5013588;28;20581;-86
2021/03/30 00:52:14;;;;;;;6.83;3.23;;;13.30;99.90;;;;;;5013622;28;20205;-87
2021/03/30 00:54:41;;;;;;;4.47;3.03;;;13.20;99.90;;;;;;5012779;28;20625;-84
2021/03/30 00:57:08;;;;;;;4.20;3.00;;;13.20;99.90;;;;;;5011705;28;20239;-81
2021/03/30 00:59:34;;;;;;;7.73;3.20;;;13.20;99.90;;;;;;5010996;28;20216;-81
2021/03/30 01:02:01;;;;;;;3.40;2.80;;;13.10;99.90;;;;;;5010887;28;20579;-81
2021/03/30 01:04:27;;;;;;;4.17;3.30;;;13.00;99.90;;;;;;5010764;28;20237;-81
2021/03/30 01:06:53;;;;;;;6.50;3.07;;;13.00;99.90;;;;;;5010734;28;20233;-79
2021/03/30 01:09:27;;;;;;;7.57;3.20;;;13.00;99.90;;;;;;5010559;28;20239;-79
2021/03/30 01:12:07;;;;;;;4.93;3.30;;;13.00;99.90;;;;;;5010952;28;20190;-82
2021/03/30 01:14:45;;;;;;;4.80;2.90;;;13.00;99.90;;;;;;5010875;28;20217;-82
2021/03/30 01:17:23;;;;;;;8.27;3.00;;;13.00;99.90;;;;;;5010763;28;20228;-79
2021/03/30 01:20:24;;;;;;;4.10;3.57;;;13.00;99.90;;;;;;5010116;28;20254;-77
2021/03/30 01:23:08;;;;;;;5.33;2.90;;;12.90;99.90;;;;;;5006978;28;20212;-79
2021/03/30 01:25:37;;;;;;;3.83;3.03;;;13.00;99.90;;;;;;5010120;28;20667;-79
2021/03/30 01:28:17;;;;;;;3.30;2.87;;;12.90;99.90;;;;;;5010054;28;20299;-78
2021/03/30 01:30:46;;;;;;;6.47;3.23;;;12.90;99.90;;;;;;5010117;28;20232;-76
2021/03/30 01:33:15;;;;;;;4.73;3.40;;;12.90;99.90;;;;;;5010262;28;20210;-76
2021/03/30 01:35:43;;;;;;;3.80;3.07;;;12.80;99.90;;;;;;5009450;28;20220;-75
2021/03/30 01:38:13;;;;;;;5.90;3.00;;;12.80;99.90;;;;;;5010021;28;20284;-77
2021/03/30 01:40:39;;;;;;;5.37;3.37;;;12.70;99.90;;;;;;5010475;28;20583;-77
2021/03/30 01:43:07;;;;;;;4.57;3.03;;;12.70;99.90;;;;;;5009712;28;20210;-77
2021/03/30 01:45:34;;;;;;;6.70;3.30;;;12.60;99.90;;;;;;5010375;28;21097;-81
2021/03/30 01:48:02;;;;;;;4.10;3.17;;;12.60;99.90;;;;;;5010343;28;20264;-81
2021/03/30 01:50:29;;;;;;;4.43;3.17;;;12.60;99.90;;;;;;5010223;28;20205;-82
2021/03/30 01:52:58;;;;;;;7.20;3.40;;;12.60;99.90;;;;;;5010174;28;20229;-81
2021/03/30 01:55:24;;;;;;;3.90;3.10;;;12.60;99.90;;;;;;5009828;28;20217;-82
2021/03/30 01:57:55;;;;;;;5.50;3.20;;;12.50;99.90;;;;;;5009971;28;20261;-80
2021/03/30 02:00:23;;;;;;;5.10;3.30;;;12.50;99.90;;;;;;5009890;28;20201;-80
2021/03/30 02:02:50;;;;;;;3.20;3.00;;;12.50;99.90;;;;;;5009920;28;20209;-80
2021/03/30 02:05:20;;;;;;;5.10;3.30;;;12.40;99.90;;;;;;5009657;28;20205;-82
2021/03/30 02:07:50;;;;;;;4.57;3.23;;;12.30;99.90;;;;;;5009736;28;20197;-81
2021/03/30 02:10:21;;;;;;;4.30;2.90;;;12.20;99.90;;;;;;5009759;28;20201;-80
2021/03/30 02:12:47;;;;;;;3.87;3.03;;;12.20;99.90;;;;;;5009748;28;20201;-80
2021/03/30 02:15:15;;;;;;;8.07;3.30;;;12.10;99.90;;;;;;5009413;28;20263;-81
2021/03/30 02:17:50;;;;;;;7.07;3.30;;;12.10;99.90;;;;;;5009644;28;20280;-80
2021/03/30 02:20:21;;;;;;;4.00;3.20;;;12.10;99.90;;;;;;5009886;28;20236;-81
2021/03/30 02:22:51;;;;;;;4.50;3.27;;;12.10;99.90;;;;;;5010155;28;20198;-82
2021/03/30 02:25:18;;;;;;;3.67;3.00;;;12.10;99.90;;;;;;5010244;28;20225;-82
2021/03/30 02:27:47;;;;;;;5.63;3.20;;;12.10;99.90;;;;;;5010167;28;20228;-82
2021/03/30 02:30:16;;;;;;;5.57;3.50;;;12.10;99.90;;;;;;5009631;28;20718;-82
2021/03/30 02:32:45;;;;;;;4.13;3.27;;;12.10;99.90;;;;;;5009950;28;20228;-82
2021/03/30 02:35:14;;;;;;;6.37;3.13;;;12.00;99.90;;;;;;5009577;28;20209;-80
2021/03/30 02:37:43;;;;;;;4.17;3.33;;;12.00;99.90;;;;;;5009453;28;20225;-80
2021/03/30 02:40:14;;;;;;;3.53;3.23;;;12.00;99.90;;;;;;5009306;28;20625;-81
2021/03/30 02:42:41;;;;;;;5.97;2.83;;;12.00;99.90;;;;;;5008930;28;20225;-79
2021/03/30 02:45:09;;;;;;;5.37;3.10;;;12.00;99.90;;;;;;5008775;28;20209;-80
2021/03/30 02:47:36;;;;;;;6.80;2.90;;;12.00;99.90;;;;;;5008378;28;20208;-84
2021/03/30 02:50:04;;;;;;;5.83;3.20;;;12.00;99.90;;;;;;5011179;28;20209;-84
2021/03/30 02:52:33;;;;;;;3.90;2.90;;;12.00;99.90;;;;;;5010978;28;20272;-84
2021/03/30 02:55:01;;;;;;;5.30;3.40;;;12.00;99.90;;;;;;5011024;28;20296;-84
2021/03/30 02:57:28;;;;;;;4.23;3.40;;;12.00;99.90;;;;;;5011440;28;20237;-84
2021/03/30 02:59:55;;;;;;;7.13;3.10;;;12.00;99.90;;;;;;5011033;28;20213;-84
2021/03/30 03:02:23;;;;;;;3.87;3.37;;;11.90;99.90;;;;;;5010219;28;20253;-78
2021/03/30 03:04:49;;;;;;;3.70;3.17;;;11.90;99.90;;;;;;5005711;28;20202;-75
2021/03/30 03:07:17;;;;;;;5.90;3.20;;;11.80;99.90;;;;;;5003169;28;20209;-79
2021/03/30 03:09:44;;;;;;;5.17;3.50;;;11.80;99.90;;;;;;5005975;28;20201;-80
2021/03/30 03:12:12;;;;;;;5.47;3.23;;;11.80;99.90;;;;;;5008510;28;20205;-79
2021/03/30 03:14:42;;;;;;;7.97;3.37;;;11.80;99.90;;;;;;4990208;28;20602;-79
2021/03/30 03:17:09;;;;;;;5.97;3.27;;;11.70;99.90;;;;;;5001281;28;20241;-78
2021/03/30 03:19:36;;;;;;;7.63;3.10;;;11.70;99.90;;;;;;5004427;28;20328;-78
2021/03/30 03:22:04;;;;;;;3.87;3.10;;;11.60;99.90;;;;;;4993199;28;20575;-79
2021/03/30 03:24:31;;;;;;;7.10;2.90;;;11.60;99.90;;;;;;4996339;28;20205;-79
2021/03/30 03:26:57;;;;;;;4.47;3.07;;;11.60;99.90;;;;;;4995664;28;20205;-78
2021/03/30 03:29:26;;;;;;;4.93;2.90;;;11.60;99.90;;;;;;4992377;28;20669;-81
2021/03/30 03:31:52;;;;;;;4.83;2.83;;;11.50;99.90;;;;;;4994117;28;20199;-80
2021/03/30 03:34:20;;;;;;;7.10;3.17;;;11.50;99.90;;;;;;4990992;28;20242;-80
2021/03/30 03:36:48;;;;;;;3.87;3.27;;;11.60;99.90;;;;;;4984747;28;20265;-74
2021/03/30 03:39:16;;;;;;;5.33;3.63;;;11.60;99.90;;;;;;4984816;28;20217;-75
2021/03/30 03:41:44;;;;;;;6.07;3.37;;;11.60;99.90;;;;;;4991142;28;20286;-80
2021/03/30 03:44:11;;;;;;;5.90;3.30;;;11.60;99.90;;;;;;4994225;28;20612;-79
2021/03/30 03:46:38;;;;;;;4.90;3.43;;;11.60;99.90;;;;;;4995310;28;20270;-81
2021/03/30 03:49:05;;;;;;;4.63;3.10;;;11.60;99.90;;;;;;5004530;28;20216;-79
2021/03/30 03:51:36;;;;;;;4.07;3.50;;;11.60;99.90;;;;;;5004403;28;20698;-78
2021/03/30 03:54:06;;;;;;;4.73;3.47;;;11.50;99.90;;;;;;4993323;28;20221;-79
2021/03/30 03:56:36;;;;;;;7.43;3.50;;;11.50;99.90;;;;;;4995155;28;20695;-79
2021/03/30 03:59:09;;;;;;;5.57;3.63;;;11.40;99.90;;;;;;4998245;28;20234;-79
2021/03/30 04:01:44;;;;;;;4.10;3.57;;;11.40;99.90;;;;;;4996829;28;20213;-80
2021/03/30 04:04:20;;;;;;;4.27;3.30;;;11.40;99.90;;;;;;4992114;28;20194;-78
2021/03/30 04:06:51;;;;;;;3.60;3.30;;;11.30;99.90;;;;;;5012097;28;20197;-79
2021/03/30 04:09:20;;;;;;;5.87;3.23;;;11.30;99.90;;;;;;5015927;28;20197;-77
2021/03/30 04:11:52;;;;;;;3.93;3.27;;;11.30;99.90;;;;;;5019807;28;20206;-79
2021/03/30 04:14:19;;;;;;;4.47;3.30;;;11.30;99.90;;;;;;5019008;28;20194;-79
2021/03/30 04:16:46;;;;;;;3.10;2.90;;;11.30;99.90;;;;;;5020065;28;20235;-80
2021/03/30 04:19:13;;;;;;;6.00;3.37;;;11.20;99.90;;;;;;5011434;28;20233;-80
2021/03/30 04:21:39;;;;;;;5.07;3.53;;;11.10;99.90;;;;;;5009469;28;20201;-80
2021/03/30 04:24:07;;;;;;;4.23;3.47;;;11.10;99.90;;;;;;5010425;28;20205;-80
2021/03/30 04:26:34;;;;;;;5.10;3.73;;;11.10;99.90;;;;;;5019917;28;20240;-80
2021/03/30 04:29:00;;;;;;;5.97;3.80;;;11.10;99.90;;;;;;5019356;28;20225;-80
2021/03/30 04:31:26;;;;;;;4.67;3.93;;;11.10;99.90;;;;;;5018766;28;20206;-80
2021/03/30 04:33:53;;;;;;;7.43;3.50;;;11.10;99.90;;;;;;5018241;28;20228;-80
2021/03/30 04:36:19;;;;;;;5.87;3.87;;;11.10;99.90;;;;;;5013145;28;20229;-81
2021/03/30 04:38:45;;;;;;;3.50;3.03;;;11.10;99.90;;;;;;5022034;28;20198;-79
2021/03/30 04:41:11;;;;;;;4.53;3.07;;;11.10;99.90;;;;;;5016680;28;20619;-80
2021/03/30 04:43:38;;;;;;;4.87;3.20;;;11.10;99.90;;;;;;5021144;28;20205;-80
2021/03/30 04:46:06;;;;;;;6.13;3.83;;;11.00;99.90;;;;;;5013597;28;20225;-80
2021/03/30 04:48:32;;;;;;;4.97;2.93;;;11.10;99.90;;;;;;5018116;28;20213;-80
2021/03/30 04:50:59;;;;;;;5.57;3.60;;;11.10;99.90;;;;;;5021254;28;20228;-79
2021/03/30 04:53:26;;;;;;;7.73;3.97;;;11.00;99.90;;;;;;5016995;28;20201;-80
2021/03/30 04:55:52;;;;;;;4.03;3.67;;;11.00;99.90;;;;;;5017223;28;20193;-80
2021/03/30 04:58:19;;;;;;;5.57;4.00;;;11.00;99.90;;;;;;5016458;28;20257;-80
2021/03/30 05:00:45;;;;;;;5.63;3.60;;;11.00;99.90;;;;;;5023913;28;20197;-80
2021/03/30 05:03:11;;;;;;;5.33;3.67;;;11.10;99.90;;;;;;5020669;28;20202;-80
2021/03/30 05:05:38;;;;;;;3.90;3.50;;;11.00;99.90;;;;;;5018368;28;20205;-79
2021/03/30 05:08:05;;;;;;;8.17;3.30;;;11.00;99.90;;;;;;5018172;28;20621;-79
2021/03/30 05:10:32;;;;;;;6.07;3.37;;;11.10;99.90;;;;;;5016976;28;20545;-80
2021/03/30 05:12:58;;;;;;;5.87;4.07;;;11.10;99.90;;;;;;5019903;28;20910;-80
2021/03/30 05:15:24;;;;;;;5.63;3.37;;;11.00;99.90;;;;;;5014556;28;20212;-80
2021/03/30 05:17:50;;;;;;;4.20;3.70;;;11.00;99.90;;;;;;5020190;28;20707;-80
2021/03/30 05:20:16;;;;;;;5.80;3.97;;;11.10;99.90;;;;;;5018990;28;20291;-81
2021/03/30 05:22:42;;;;;;;7.53;3.50;;;11.00;99.90;;;;;;5018571;28;20237;-80
2021/03/30 05:25:11;;;;;;;3.90;3.60;;;11.00;99.90;;;;;;5009101;28;20238;-80
2021/03/30 05:27:37;;;;;;;6.27;3.80;;;11.00;99.90;;;;;;5017617;28;20237;-82
2021/03/30 05:30:04;;;;;;;6.27;3.47;;;11.10;99.90;;;;;;5012373;28;20198;-73
2021/03/30 05:32:30;;;;;;;6.97;4.17;;;11.10;99.90;;;;;;5009277;28;20314;-72
2021/03/30 05:34:56;;;;;;;5.47;3.87;;;11.10;99.90;;;;;;5022788;28;20260;-80
2021/03/30 05:37:22;;;;;;;4.40;3.67;;;11.10;99.90;;;;;;5025241;28;20267;-81
2021/03/30 05:39:48;;;;;;;5.83;3.43;;;11.00;99.90;;;;;;5022106;28;20204;-80
2021/03/30 05:42:19;;;;;;;7.77;3.47;;;11.00;99.90;;;;;;5020647;28;20205;-81
2021/03/30 05:44:45;;;;;;;3.70;3.17;;;11.00;99.90;;;;;;5019283;28;20189;-81
2021/03/30 05:47:14;;;;;;;5.13;3.53;;;11.00;99.90;;;;;;5020021;28;20209;-81
2021/03/30 05:49:42;;;;;;;6.93;3.50;;;11.10;99.90;;;;;;5018158;28;20201;-81
2021/03/30 05:52:11;;;;;;;5.97;3.50;;;11.10;99.90;;;;;;5017644;28;20194;-80
2021/03/30 05:54:40;;;;;;;6.30;3.57;;;11.00;99.90;;;;;;5020246;28;20233;-81
2021/03/30 05:57:11;;;;;;;4.50;3.30;;;11.10;99.90;;;;;;5014176;28;20253;-81
2021/03/30 05:59:40;;;;;;;4.60;3.50;;;11.00;99.90;;;;;;5020983;28;20196;-81
2021/03/30 06:02:18;;;;;;;4.00;3.57;;;11.10;99.90;;;;;;5018110;28;20611;-81
2021/03/30 06:04:45;;;;;;;4.40;3.23;;;11.10;99.90;;;;;;5009389;28;20211;-80
2021/03/30 06:07:12;;;;;;;5.10;3.60;;;11.10;99.90;;;;;;5018970;28;20323;-81
2021/03/30 06:09:41;;;;;;;4.50;3.80;;;11.10;99.90;;;;;;5019627;28;20208;-81
2021/03/30 06:12:09;;;;;;;6.27;3.83;;;11.20;99.90;;;;;;5016999;28;20197;-80
2021/03/30 06:14:39;;;;;;;6.53;3.80;;;11.20;99.90;;;;;;5012259;28;20209;-81
2021/03/30 06:17:06;;;;;;;8.10;3.73;;;11.30;99.90;;;;;;5002687;28;20303;-80
2021/03/30 06:19:50;;;;;;;4.30;3.70;;;11.30;99.90;;;;;;4989507;28;20640;-81
2021/03/30 06:22:18;;;;;;;8.20;3.73;;;11.30;99.90;;;;;;4988819;28;20715;-80
2021/03/30 06:24:44;;;;;;;5.57;3.90;;;11.40;99.90;;;;;;4989532;28;20797;-80
2021/03/30 06:27:22;;;;;;;4.23;3.70;;;11.40;99.90;;;;;;4989502;28;20210;-80
2021/03/30 06:29:50;;;;;;;8.53;4.33;;;11.40;99.90;;;;;;4989800;28;20260;-80
2021/03/30 06:32:18;;;;;;;6.23;4.07;;;11.50;99.90;;;;;;4989143;28;20610;-80
2021/03/30 06:34:46;;;;;;;5.23;4.63;;;11.50;99.90;;;;;;4990507;28;20206;-81
2021/03/30 06:37:31;;;;;;;8.77;7.87;;;11.60;99.90;;;;;;5008645;28;20233;-80
2021/03/30 06:40:00;;;;;;;6.90;4.43;;;11.60;99.90;;;;;;5008693;28;20193;-81
2021/03/30 06:42:34;;;;;;;9.47;4.53;;;11.70;99.90;;;;;;5008602;28;20209;-81
2021/03/30 06:45:02;;;;;;;8.50;4.53;;;11.70;99.90;;;;;;5008286;28;20806;-80
2021/03/30 06:47:29;;;;;;;7.03;4.80;;;11.80;99.90;;;;;;5008809;28;20577;-81
2021/03/30 06:49:58;;;;;;;6.00;4.60;;;11.80;99.90;;;;;;5008897;28;20774;-81
2021/03/30 06:52:29;;;;;;;8.67;5.53;;;11.90;99.90;;;;;;5008727;28;20560;-80
2021/03/30 06:54:58;;;;;;;8.23;5.20;;;11.90;99.90;;;;;;5009020;28;20189;-81
2021/03/30 06:57:34;;;;;;;6.60;5.27;;;12.00;99.90;;;;;;5008540;28;20236;-81
2021/03/30 07:00:01;;;;;;;7.80;5.40;;;12.00;99.90;;;;;;4996636;28;20715;-80
2021/03/30 07:02:29;;;;;;;7.17;5.10;;;12.10;99.90;;;;;;4988949;28;20221;-80
2021/03/30 07:04:56;;;;;;;8.70;4.93;;;12.20;99.90;;;;;;4989133;28;20209;-80
2021/03/30 07:07:23;;;;;;;6.53;5.40;;;12.30;99.90;;;;;;4988866;28;20272;-80
2021/03/30 07:09:52;;;;;;;10.37;5.30;;;12.30;99.90;;;;;;4991687;28;20320;-80
2021/03/30 07:12:22;;;;;;;10.13;5.67;;;12.40;99.90;;;;;;4990968;28;20221;-80
2021/03/30 07:14:49;;;;;;;7.67;6.87;;;12.40;99.90;;;;;;5008945;28;20604;-80
2021/03/30 07:17:34;;;;;;;9.43;7.90;;;12.60;99.90;;;;;;5008619;28;20696;-79
2021/03/30 07:20:04;;;;;;;10.40;7.17;;;12.70;99.90;;;;;;5008513;28;20237;-81
2021/03/30 07:22:34;;;;;;;6.97;5.93;;;12.80;99.90;;;;;;5008841;28;20248;-81
2021/03/30 07:25:03;;;;;;;8.13;6.07;;;12.80;99.90;;;;;;5008621;28;20387;-80
2021/03/30 07:27:32;;;;;;;7.70;6.13;;;12.90;99.90;;;;;;5008261;28;20763;-80
2021/03/30 07:30:00;;;;;;;11.43;7.43;;;13.00;99.90;;;;;;5008660;28;20220;-81
2021/03/30 07:32:37;;;;;;;8.83;6.23;;;13.10;99.90;;;;;;5008155;28;20275;-81
2021/03/30 07:35:06;;;;;;;7.00;6.03;;;13.20;99.90;;;;;;5004448;28;20220;-81
2021/03/30 07:37:39;;;;;;;7.90;5.93;;;13.20;99.90;;;;;;5003211;28;20236;-81
2021/03/30 07:40:07;;;;;;;8.13;6.60;;;13.30;99.90;;;;;;5023195;28;20287;-81
2021/03/30 07:42:34;;;;;;;7.83;6.50;;;13.40;99.90;;;;;;5021660;28;21012;-80
2021/03/30 07:45:01;;;;;;;8.33;6.07;;;13.50;99.90;;;;;;5024897;28;20284;-80
2021/03/30 07:47:27;;;;;;;8.03;6.03;;;13.60;99.90;;;;;;5016301;28;20702;-81
2021/03/30 07:49:55;;;;;;;8.67;6.03;;;13.70;99.90;;;;;;5016306;28;20679;-80
2021/03/30 07:52:25;;;;;;;8.70;6.20;;;13.80;99.90;;;;;;5020870;28;20201;-81
2021/03/30 07:55:18;;;;;;;11.27;6.43;;;13.90;99.90;;;;;;5019824;28;20256;-80
2021/03/30 07:57:56;;;;;;;7.80;6.83;;;14.00;99.90;;;;;;5022123;28;20790;-80
2021/03/30 08:00:50;;;;;;;9.60;6.57;;;14.10;99.90;;;;;;5013858;28;20212;-81
2021/03/30 08:03:21;;;;;;;9.03;6.37;;;14.20;99.90;;;;;;5012201;28;20198;-80
2021/03/30 08:06:10;;;;;;;9.07;6.53;;;14.30;99.90;;;;;;5021707;28;20847;-81
2021/03/30 08:08:48;;;;;;;7.70;6.90;;;14.40;99.90;;;;;;5014405;28;20235;-81
2021/03/30 08:11:15;;;;;;;8.13;6.97;;;14.50;99.80;;;;;;5012724;28;20240;-81
2021/03/30 08:13:52;;;;;;;9.10;7.07;;;14.60;99.90;;;;;;5026085;28;20228;-82
2021/03/30 08:16:20;;;;;;;8.53;6.50;;;14.70;99.60;;;;;;5016216;28;20204;-80
2021/03/30 08:18:47;;;;;;;8.90;6.93;;;14.80;99.70;;;;;;5002178;28;20225;-74
2021/03/30 08:21:16;;;;;;;9.73;7.10;;;14.90;99.30;;;;;;4999218;28;20219;-74
2021/03/30 08:24:11;;;;;;;8.57;7.07;;;15.00;98.50;;;;;;5007329;28;20228;-80
2021/03/30 08:26:40;;;;;;;11.63;7.60;;;15.10;98.30;;;;;;5019437;28;20737;-81
2021/03/30 08:29:08;;;;;;;9.53;7.93;;;15.10;97.90;;;;;;5021400;28;20201;-80
2021/03/30 08:31:36;;;;;;;10.37;7.67;;;15.20;98.40;;;;;;5019309;28;20317;-81
2021/03/30 08:34:05;;;;;;;12.47;9.23;;;15.30;98.50;;;;;;5018685;28;20209;-81
2021/03/30 08:36:35;;;;;;;11.07;7.77;;;15.40;97.70;;;;;;5013248;28;20201;-81
2021/03/30 08:39:06;;;;;;;10.20;7.60;;;15.40;97.70;;;;;;5020659;28;20206;-81
2021/03/30 08:41:58;;;;;;;9.23;7.57;;;15.50;97.50;;;;;;5018224;28;20216;-83
2021/03/30 08:44:32;;;;;;;10.87;7.63;;;15.60;97.40;;;;;;5022761;28;20229;-81
2021/03/30 08:46:59;;;;;;;12.27;8.40;;;15.80;97.10;;;;;;5014825;28;20197;-80
2021/03/30 08:49:31;;;;;;;11.67;8.27;;;15.90;97.10;;;;;;5017979;28;20209;-81
2021/03/30 08:51:59;;;;;;;10.17;7.80;;;15.90;97.50;;;;;;5010168;28;20785;-80
2021/03/30 08:54:27;;;;;;;13.23;8.43;;;16.00;96.70;;;;;;5019579;28;20251;-80
2021/03/30 08:56:58;;;;;;;11.30;7.73;;;16.10;96.90;;;;;;5012825;28;20204;-81
2021/03/30 08:59:27;;;;;;;10.03;7.23;;;16.20;96.90;;;;;;5011500;28;20197;-81
2021/03/30 09:02:05;;;;;;;10.83;7.53;;;16.30;96.90;;;;;;5020794;28;20212;-81
2021/03/30 09:04:34;;;;;;;14.77;7.93;;;16.30;96.90;;;;;;5015800;28;20215;-80
2021/03/30 09:07:01;;;;;;;11.83;7.77;;;16.40;97.70;;;;;;5014573;28;20210;-80
2021/03/30 09:09:33;;;;;;;18.50;8.03;;;16.50;97.60;;;;;;5018010;28;20205;-81
2021/03/30 09:12:00;;;;;;;9.27;7.43;;;16.60;97.10;;;;;;5011279;28;20271;-80
2021/03/30 09:14:26;;;;;;;8.70;6.40;;;16.70;97.70;;;;;;5009242;28;20661;-80
2021/03/30 09:16:52;;;;;;;9.87;7.70;;;16.80;98.30;;;;;;5009377;28;20694;-80
2021/03/30 09:19:23;;;;;;;11.07;8.10;;;16.90;97.70;;;;;;5009539;28;20237;-80
2021/03/30 09:21:53;;;;;;;10.50;7.27;;;16.90;97.50;;;;;;5009530;28;20312;-80
2021/03/30 09:27:05;;;;;;;16.37;7.83;;;17.00;99.20;;;;;;5009255;28;20314;-80
2021/03/30 09:29:31;;;;;;;9.73;7.20;;;17.10;98.70;;;;;;5008789;28;20213;-79
2021/03/30 09:31:59;;;;;;;9.63;7.33;;;17.20;99.10;;;;;;5008755;28;20206;-80
2021/03/30 09:34:26;;;;;;;12.60;8.00;;;17.30;98.70;;;;;;5008974;28;20244;-80
2021/03/30 09:36:52;;;;;;;13.63;7.93;;;17.30;98.30;;;;;;5008849;28;20209;-80
2021/03/30 09:39:21;;;;;;;12.40;7.83;;;17.40;98.50;;;;;;5009215;28;20205;-79
2021/03/30 09:41:49;;;;;;;10.60;7.97;;;17.40;98.20;;;;;;5009233;28;20294;-79
2021/03/30 09:44:16;;;;;;;10.83;8.03;;;17.50;98.30;;;;;;5008270;28;20654;-80
2021/03/30 09:46:44;;;;;;;12.87;8.03;;;17.60;98.70;;;;;;5008813;28;20229;-80
2021/03/30 09:49:11;;;;;;;14.00;8.50;;;17.60;98.60;;;;;;5009001;28;20201;-81
2021/03/30 09:51:39;;;;;;;16.57;8.60;;;17.70;98.70;;;;;;5000270;28;20210;-80
2021/03/30 09:54:27;;;;;;;17.30;8.80;;;17.80;99.20;;;;;;5009098;28;20280;-79
2021/03/30 09:57:04;;;;;;;14.27;8.87;;;17.80;99.30;;;;;;5007914;28;20672;-79
2021/03/30 09:59:31;;;;;;;9.33;8.10;;;17.90;98.80;;;;;;5008272;28;20198;-79
2021/03/30 10:02:01;;;;;;;11.17;7.97;;;17.80;98.50;;;;;;5008131;28;20788;-79
2021/03/30 10:04:27;;;;;;;10.57;8.03;;;17.90;98.90;;;;;;5008147;28;20214;-79
2021/03/30 10:06:54;;;;;;;10.30;8.03;;;17.90;99.00;;;;;;5008902;28;20209;-79
2021/03/30 10:09:22;;;;;;;13.87;8.17;;;18.00;99.30;;;;;;5008610;28;20213;-80
2021/03/30 10:11:51;;;;;;;14.17;9.60;;;18.00;99.60;;;;;;5008591;28;20702;-79
2021/03/30 10:14:25;;;;;;;13.73;8.90;;;18.20;99.70;;;;;;5008453;28;20213;-79
2021/03/30 10:16:54;;;;;;;11.67;8.47;;;18.20;98.90;;;;;;5007973;28;20207;-80
2021/03/30 10:19:21;;;;;;;14.73;8.67;;;18.20;99.50;;;;;;4993843;28;20234;-72
2021/03/30 10:21:52;;;;;;;10.27;7.83;;;18.30;99.10;;;;;;4995441;28;20228;-72
2021/03/30 10:24:19;;;;;;;12.03;8.30;;;18.30;99.90;;;;;;5000641;28;20206;-80
2021/03/30 10:29:39;;;;;;;10.63;8.07;;;18.30;99.60;;;;;;5158956;27;20521;-79
2021/03/30 10:32:10;;;;;;;13.67;8.13;;;18.60;99.40;;;;;;5167677;27;20291;-79
2021/03/30 10:34:38;;;;;;;10.60;7.87;;;18.70;98.60;;;;;;5146657;27;20201;-80
2021/03/30 10:37:06;;;;;;;16.23;8.20;;;18.70;98.60;;;;;;5146477;27;20208;-79
2021/03/30 10:39:36;;;;;;;9.83;7.33;;;18.70;98.30;;;;;;5146132;27;20540;-79
2021/03/30 10:42:08;;;;;;;10.33;8.03;;;18.80;98.90;;;;;;5146184;27;20197;-79
2021/03/30 10:44:37;;;;;;;10.23;7.80;;;19.00;98.30;;;;;;5142911;27;20228;-79
2021/03/30 10:47:16;;;;;;;12.23;8.30;;;19.10;98.20;;;;;;5125428;28;20749;-79
2021/03/30 10:49:43;;;;;;;10.43;7.73;;;19.10;97.70;;;;;;5125353;28;20201;-80
2021/03/30 10:52:15;;;;;;;9.77;7.50;;;19.20;98.10;;;;;;5125450;28;20250;-80
2021/03/30 10:54:41;;;;;;;10.37;7.47;;;19.30;97.90;;;;;;5116579;28;20193;-80
2021/03/30 10:57:10;;;;;;;10.07;8.33;;;19.40;97.70;;;;;;5116393;28;20197;-79
2021/03/30 10:59:36;;;;;;;11.50;8.50;;;19.50;97.80;;;;;;5113453;28;20245;-80
2021/03/30 11:02:02;;;;;;;12.83;8.80;;;19.60;97.10;;;;;;5115811;28;20664;-80
2021/03/30 11:04:29;;;;;;;11.53;8.53;;;19.50;97.10;;;;;;5114984;28;20198;-80
2021/03/30 11:06:56;;;;;;;11.13;8.90;;;19.50;97.10;;;;;;5125119;28;20194;-79
2021/03/30 11:09:24;;;;;;;11.27;8.57;;;19.60;96.90;;;;;;5124656;28;20229;-78
2021/03/30 11:11:50;;;;;;;13.67;8.70;;;19.60;97.10;;;;;;5125331;28;20205;-78
2021/03/30 11:14:16;;;;;;;9.23;8.10;;;19.60;97.30;;;;;;5113831;28;20194;-78
2021/03/30 11:16:42;;;;;;;13.03;8.67;;;19.80;97.70;;;;;;5116212;27;20202;-79
2021/03/30 11:19:11;;;;;;;12.03;8.80;;;19.90;97.10;;;;;;5114512;28;20206;-79
2021/03/30 11:21:38;;;;;;;18.20;8.47;;;20.10;96.30;;;;;;5125268;28;20212;-79
2021/03/30 11:24:05;;;;;;;9.77;8.40;;;20.10;96.70;;;;;;5118780;28;20194;-79
2021/03/30 11:26:31;;;;;;;10.10;8.63;;;20.20;96.00;;;;;;5115284;28;20202;-79
2021/03/30 11:29:00;;;;;;;10.47;9.10;;;20.10;96.20;;;;;;5112800;28;20255;-79
2021/03/30 11:31:41;;;;;;;11.27;8.30;;;20.10;96.30;;;;;;5116556;28;20194;-79
2021/03/30 11:34:11;;;;;;;11.30;8.33;;;20.20;96.80;;;;;;5122708;27;20201;-77
2021/03/30 11:36:41;;;;;;;11.33;7.63;;;20.40;97.10;;;;;;5124933;27;20213;-77
2021/03/30 11:39:07;;;;;;;11.20;8.53;;;20.40;96.70;;;;;;5119863;28;20190;-78
2021/03/30 11:41:33;;;;;;;10.57;8.57;;;20.60;95.90;;;;;;5109943;28;20729;-78
2021/03/30 11:44:00;;;;;;;14.80;7.57;;;20.60;96.00;;;;;;5110379;28;20736;-78
2021/03/30 11:46:26;;;;;;;14.50;7.77;;;20.70;96.50;;;;;;5110279;28;20222;-78
2021/03/30 11:48:52;;;;;;;13.17;7.93;;;20.80;96.20;;;;;;5110443;28;20678;-79
2021/03/30 11:51:18;;;;;;;13.53;8.80;;;21.00;95.90;;;;;;5110123;28;20230;-80
2021/03/30 11:53:45;;;;;;;9.50;7.60;;;20.90;95.60;;;;;;5101313;28;20232;-79
2021/03/30 11:56:11;;;;;;;15.07;7.57;;;20.90;95.30;;;;;;5099880;28;20650;-79
2021/03/30 11:58:38;;;;;;;11.50;8.43;;;21.00;95.50;;;;;;5109871;28;20202;-79
2021/03/30 12:01:06;;;;;;;12.17;8.70;;;21.10;95.30;;;;;;5110203;28;20200;-79
2021/03/30 12:03:35;;;;;;;9.45;8.38;;;21.20;95.30;;;;;;5110508;28;20216;-77
2021/03/30 12:06:01;;;;;;;10.82;7.38;;;21.30;95.40;;;;;;5109924;28;20199;-78
2021/03/30 12:08:27;;;;;;;11.70;8.20;;;21.50;95.70;;;;;;5109765;28;20294;-78
2021/03/30 12:10:54;;;;;;;14.10;8.57;;;21.40;95.20;;;;;;5110770;28;20197;-78
2021/03/30 12:13:20;;;;;;;10.55;7.43;;;21.40;94.70;;;;;;5110840;28;20206;-78
2021/03/30 12:15:46;;;;;;;11.40;8.77;;;21.30;94.90;;;;;;5111237;28;20210;-78
2021/03/30 12:18:12;;;;;;;9.90;7.90;;;21.50;94.50;;;;;;5110829;28;20210;-78
2021/03/30 12:20:39;;;;;;;10.48;7.57;;;21.50;94.90;;;;;;5110975;28;20255;-78
2021/03/30 12:23:05;;;;;;;9.18;7.63;;;21.60;94.40;;;;;;5110889;28;20206;-79
2021/03/30 12:25:31;;;;;;;12.13;8.52;;;21.70;94.10;;;;;;5110746;28;20206;-78
2021/03/30 12:27:58;;;;;;;10.70;7.83;;;21.70;93.90;;;;;;5110450;28;20624;-78
2021/03/30 12:30:24;;;;;;;14.55;8.63;;;21.80;94.00;;;;;;5110695;28;20198;-78
2021/03/30 12:32:50;;;;;;;12.73;8.05;;;21.90;93.90;;;;;;5110972;28;20212;-78
2021/03/30 12:35:16;;;;;;;9.75;8.23;;;22.00;93.80;;;;;;5110680;28;20210;-78
2021/03/30 12:37:42;;;;;;;11.63;7.53;;;22.10;93.70;;;;;;5110476;28;20202;-78
2021/03/30 12:40:09;;;;;;;10.30;7.72;;;22.00;93.50;;;;;;5110679;28;20227;-78
2021/03/30 12:42:36;;;;;;;10.27;8.45;;;22.10;93.00;;;;;;5110007;28;20744;-78
2021/03/30 12:45:03;;;;;;;9.52;7.20;;;22.10;93.20;;;;;;5110260;28;20589;-79
2021/03/30 12:47:29;;;;;;;10.05;7.07;;;22.10;93.90;;;;;;5110163;28;20213;-78
2021/03/30 12:49:55;;;;;;;7.80;6.28;;;22.30;93.40;;;;;;5110300;28;20271;-77
2021/03/30 12:52:22;;;;;;;8.88;6.40;;;22.20;92.90;;;;;;5109394;28;20210;-78
2021/03/30 12:54:48;;;;;;;13.52;7.07;;;22.40;93.10;;;;;;5110477;28;20237;-78
2021/03/30 12:57:14;;;;;;;8.80;6.00;;;22.60;93.10;;;;;;5110304;28;20216;-78